Terminal Aerodrome Forecast
Issued by NWS Greer, SC

Home | Current Version | Previous Version | Text Only | Print | Product List | Glossary On
Versions: 1 2 3 4 5 6 7 8 9 10 11 12 13 14 15 16 17 18 19 20
875
FTUS42 KGSP 231132
TAFGSP
TAF
KGSP 231132Z 2312/2412 01004KT P6SM SCT070
     FM231700 09004KT P6SM SCT050
     FM240800 VRB02KT 3SM BR BKN020
     FM240900 VRB02KT 1 1/2SM BR BKN010=

USA.gov is the U.S. government's official web portal to all federal, state and local government web resources and services.